Time;durP1;ratioP1;P1;durP2;ratioP2;P2;SDS_P1;SDS_P2;PMS_P1;PMS_P2;Temp;Humidity;BMP_temperature;BMP_pressure;BME280_temperature;BME280_humidity;BME280_pressure;Samples;Min_cycle;Max_cycle;Signal;HPM_P1;HPM_P2
2022/01/04 00:09:53;;;;;;;7.13;4.73;;;;;;;6.32;100.00;99303.75;21075436;28;20698;-61
2022/01/04 00:19:55;;;;;;;10.20;4.87;;;;;;;6.29;100.00;99288.03;21075436;28;20352;-61
2022/01/04 00:29:58;;;;;;;7.50;5.07;;;;;;;6.30;100.00;99284.44;21024587;28;20668;-61
2022/01/04 00:40:01;;;;;;;7.80;4.20;;;;;;;6.32;100.00;99288.69;21018585;28;20200;-61
2022/01/04 00:50:04;;;;;;;4.97;3.60;;;;;;;6.22;100.00;99286.72;21016121;28;20231;-61
2022/01/04 01:00:08;;;;;;;4.33;3.77;;;;;;;5.78;100.00;99258.56;21016989;28;20199;-62
2022/01/04 01:10:28;;;;;;;6.80;3.37;;;;;;;5.31;100.00;99250.84;21014515;28;20355;-61
2022/01/04 01:30:26;;;;;;;7.03;3.90;;;;;;;4.87;100.00;99233.16;21082505;27;20536;-60
2022/01/04 01:40:29;;;;;;;6.33;4.00;;;;;;;4.64;100.00;99223.06;21117398;28;20207;-62
2022/01/04 01:50:32;;;;;;;7.17;4.43;;;;;;;4.41;100.00;99215.59;21112397;28;20193;-63
2022/01/04 02:00:37;;;;;;;9.53;4.63;;;;;;;4.65;100.00;99209.78;21080013;28;20280;-61
2022/01/04 02:10:39;;;;;;;6.23;4.90;;;;;;;5.04;100.00;99211.03;21100108;28;20198;-60
2022/01/04 02:20:42;;;;;;;8.70;4.43;;;;;;;5.14;100.00;99206.88;21117629;28;20686;-60
2022/01/04 02:30:45;;;;;;;5.77;3.87;;;;;;;5.08;100.00;99208.09;21081177;27;20190;-60
2022/01/04 02:40:48;;;;;;;5.80;3.67;;;;;;;4.90;100.00;99203.06;21048038;28;20810;-61
2022/01/04 02:50:51;;;;;;;9.97;4.60;;;;;;;4.50;100.00;99186.88;21073818;28;20628;-61
2022/01/04 03:00:53;;;;;;;5.87;3.97;;;;;;;4.38;100.00;99163.81;21036770;28;20281;-62
2022/01/04 03:30:47;;;;;;;7.03;4.13;;;;;;;4.04;100.00;99150.81;21167510;27;20681;-62
2022/01/04 03:40:50;;;;;;;5.93;4.43;;;;;;;4.12;100.00;99140.69;21165963;27;20193;-62
2022/01/04 03:50:53;;;;;;;8.20;4.50;;;;;;;3.96;100.00;99128.38;21165040;27;20197;-61
2022/01/04 04:00:56;;;;;;;7.90;4.50;;;;;;;3.81;100.00;99110.75;21163303;28;20205;-61
2022/01/04 04:10:59;;;;;;;5.10;4.60;;;;;;;3.75;100.00;99100.53;21162140;28;20197;-61
2022/01/04 04:30:59;;;;;;;4.77;4.10;;;;;;;3.73;100.00;99117.41;21086453;27;20513;-61
2022/01/04 05:00:52;;;;;;;5.53;4.97;;;;;;;4.63;100.00;99090.13;21165834;27;20712;-64
2022/01/04 05:20:49;;;;;;;6.73;5.20;;;;;;;5.43;100.00;99091.38;21167361;27;20605;-62
2022/01/04 05:30:52;;;;;;;8.13;5.57;;;;;;;5.44;100.00;99088.63;21165827;27;20200;-62
2022/01/04 05:50:49;;;;;;;7.40;4.77;;;;;;;4.63;100.00;99068.97;20877798;27;1175176;-62
2022/01/04 06:20:44;;;;;;;5.37;4.70;;;;;;;4.43;100.00;99052.63;21130511;27;21647;-63
2022/01/04 06:30:51;;;;;;;5.30;4.80;;;;;;;4.62;100.00;99040.84;21110049;28;20192;-62
2022/01/04 06:50:48;;;;;;;8.20;5.70;;;;;;;4.78;100.00;99048.72;21220149;27;20577;-61
2022/01/04 07:09:55;;;;;;;7.23;5.83;;;;;;;4.48;100.00;99032.91;21109391;27;20516;-58
2022/01/04 07:19:58;;;;;;;8.17;7.00;;;;;;;4.69;100.00;99020.22;21111406;28;20550;-60
2022/01/04 07:30:02;;;;;;;9.60;7.20;;;;;;;4.89;100.00;99027.75;21112446;28;20225;-59
2022/01/04 07:40:07;;;;;;;12.20;8.17;;;;;;;5.03;100.00;99018.97;21111893;28;20193;-58
2022/01/04 07:50:11;;;;;;;9.67;7.30;;;;;;;5.29;100.00;99006.78;21132708;28;20281;-58
2022/01/04 08:00:15;;;;;;;9.23;7.87;;;;;;;5.71;100.00;99011.06;21133199;28;20651;-59
2022/01/04 08:10:19;;;;;;;7.87;6.97;;;;;;;6.21;100.00;98985.72;21131870;28;21477;-59
2022/01/04 08:20:22;;;;;;;7.17;6.50;;;;;;;6.64;100.00;98960.59;21038910;28;20261;-59
2022/01/04 08:30:24;;;;;;;8.27;6.40;;;;;;;7.13;100.00;98938.56;21074664;28;20200;-57
2022/01/04 08:40:27;;;;;;;6.47;5.87;;;;;;;7.48;100.00;98923.59;21074109;28;20224;-58
2022/01/04 08:50:30;;;;;;;6.10;5.50;;;;;;;7.67;100.00;98924.88;21072909;28;20200;-59
2022/01/04 09:00:32;;;;;;;5.93;5.33;;;;;;;7.79;100.00;98898.25;21071385;28;20272;-58
2022/01/04 09:10:35;;;;;;;5.80;5.20;;;;;;;7.99;100.00;98888.75;21072476;28;20193;-58
2022/01/04 09:20:38;;;;;;;5.33;4.83;;;;;;;8.32;100.00;98903.13;21061673;28;20217;-59
2022/01/04 09:30:41;;;;;;;5.60;4.87;;;;;;;8.64;100.00;98874.84;21067996;28;20205;-59
2022/01/04 09:40:45;;;;;;;4.73;4.33;;;;;;;8.95;100.00;98863.44;21061859;28;20218;-57
2022/01/04 09:50:49;;;;;;;4.77;4.37;;;;;;;9.11;100.00;98840.91;21055962;28;20190;-58
2022/01/04 10:00:51;;;;;;;5.07;4.57;;;;;;;9.20;100.00;98830.34;21057311;28;20325;-58
2022/01/04 10:11:02;;;;;;;5.60;5.10;;;;;;;9.19;100.00;98811.84;21056024;28;20286;-57
2022/01/04 10:21:05;;;;;;;5.27;4.87;;;;;;;9.04;100.00;98792.69;21053609;28;20221;-58
2022/01/04 10:31:10;;;;;;;5.60;5.00;;;;;;;8.94;100.00;98783.75;21054085;28;20260;-59
2022/01/04 10:41:16;;;;;;;5.10;4.70;;;;;;;8.81;100.00;98781.28;21048670;28;20224;-58
2022/01/04 10:51:23;;;;;;;4.73;4.33;;;;;;;9.09;100.00;98760.34;21056107;28;20194;-59
2022/01/04 11:01:28;;;;;;;6.63;5.83;;;;;;;9.19;100.00;98740.00;21058001;28;20245;-58
2022/01/04 11:11:31;;;;;;;5.30;4.80;;;;;;;9.22;100.00;98726.44;21057189;28;20194;-59
2022/01/04 11:21:37;;;;;;;4.87;4.43;;;;;;;9.36;100.00;98713.66;21053436;28;20222;-59
2022/01/04 11:32:03;;;;;;;5.70;5.10;;;;;;;9.09;100.00;98681.38;21035707;28;20226;-59
2022/01/04 11:42:13;;;;;;;5.10;4.60;;;;;;;8.78;100.00;98669.81;21061076;28;20721;-60
2022/01/04 11:52:37;;;;;;;7.30;4.87;;;;;;;8.46;100.00;98648.53;21056337;28;20750;-60
2022/01/04 12:02:40;;;;;;;5.50;5.07;;;;;;;8.34;100.00;98620.31;21081140;28;20712;-60
2022/01/04 12:13:09;;;;;;;5.77;5.20;;;;;;;8.16;100.00;98604.03;21080785;28;20183;-60
2022/01/04 12:23:24;;;;;;;5.80;5.30;;;;;;;8.12;100.00;98580.50;21078390;28;20225;-60
2022/01/04 12:33:37;;;;;;;7.30;5.47;;;;;;;8.13;100.00;98545.84;21064076;28;20205;-58
2022/01/04 12:43:40;;;;;;;6.23;5.63;;;;;;;8.13;100.00;98527.25;21066999;28;20311;-57
2022/01/04 12:53:43;;;;;;;6.50;5.90;;;;;;;8.20;100.00;98499.22;21066528;28;20222;-57
2022/01/04 13:03:45;;;;;;;7.80;7.00;;;;;;;8.18;100.00;98476.41;21065680;28;20261;-57
2022/01/04 13:14:00;;;;;;;9.07;8.17;;;;;;;8.09;100.00;98454.09;21032363;28;20552;-57
2022/01/04 13:24:03;;;;;;;9.10;7.97;;;;;;;8.02;100.00;98444.13;21072027;28;20636;-60
2022/01/04 13:34:06;;;;;;;9.80;8.63;;;;;;;7.83;100.00;98428.88;21075149;28;20613;-62
2022/01/04 13:44:09;;;;;;;13.93;12.10;;;;;;;7.70;100.00;98420.25;21050867;28;20226;-60
2022/01/04 13:54:15;;;;;;;13.40;11.17;;;;;;;7.57;100.00;98400.03;21028376;28;20238;-60
2022/01/04 14:04:20;;;;;;;16.00;12.37;;;;;;;7.46;100.00;98380.66;21017605;28;20282;-60
2022/01/04 14:14:26;;;;;;;15.37;13.17;;;;;;;7.37;100.00;98350.41;21030971;28;20722;-61
2022/01/04 14:24:43;;;;;;;16.67;14.77;;;;;;;7.31;100.00;98335.00;21032931;28;20229;-61
2022/01/04 14:34:47;;;;;;;18.53;15.90;;;;;;;7.28;100.00;98313.19;21032518;28;20898;-61
2022/01/04 14:44:49;;;;;;;22.00;17.63;;;;;;;7.19;100.00;98273.19;21053278;28;20231;-60
2022/01/04 14:54:54;;;;;;;16.93;15.03;;;;;;;7.12;100.00;98260.59;21078584;28;20221;-60
2022/01/04 15:04:58;;;;;;;17.07;15.10;;;;;;;7.17;100.00;98245.13;21032206;28;20237;-56
2022/01/04 15:15:03;;;;;;;15.87;14.00;;;;;;;7.22;100.00;98245.59;21015177;28;20657;-56
2022/01/04 15:25:07;;;;;;;17.50;14.97;;;;;;;7.19;100.00;98208.69;20997849;28;20309;-56
2022/01/04 15:35:10;;;;;;;15.17;13.50;;;;;;;7.19;100.00;98187.47;21008477;28;20204;-56
2022/01/04 15:45:12;;;;;;;16.17;14.57;;;;;;;7.19;100.00;98179.53;20991538;28;20299;-56
2022/01/04 15:55:15;;;;;;;15.33;13.73;;;;;;;7.18;100.00;98173.38;21007901;28;20203;-56
2022/01/04 16:05:18;;;;;;;13.93;12.53;;;;;;;7.23;100.00;98149.13;21006923;28;20245;-55
2022/01/04 16:15:24;;;;;;;14.83;13.33;;;;;;;7.26;100.00;98132.94;21026267;28;20696;-55
2022/01/04 16:25:28;;;;;;;15.67;14.07;;;;;;;7.23;100.00;98112.84;21023246;28;20230;-56
2022/01/04 16:35:30;;;;;;;15.60;14.00;;;;;;;7.20;100.00;98104.28;21005012;28;20186;-56
2022/01/04 16:45:33;;;;;;;14.57;13.17;;;;;;;7.18;100.00;98096.47;21004339;28;20665;-55
2022/01/04 16:55:36;;;;;;;14.50;12.50;;;;;;;7.23;100.00;98096.09;21002095;28;20209;-55
2022/01/04 17:05:59;;;;;;;12.63;11.17;;;;;;;7.29;100.00;98076.97;21002069;28;20249;-56
2022/01/04 17:16:06;;;;;;;14.93;12.80;;;;;;;7.34;100.00;98045.59;21001764;28;20264;-56
2022/01/04 17:26:11;;;;;;;12.77;11.47;;;;;;;7.41;100.00;98033.47;21000796;28;20225;-57
2022/01/04 17:36:14;;;;;;;12.80;11.53;;;;;;;7.45;100.00;98016.31;20997488;28;20334;-57
2022/01/04 17:46:17;;;;;;;13.10;11.80;;;;;;;7.50;100.00;98008.75;20885662;28;20237;-57
2022/01/04 17:56:20;;;;;;;13.47;12.20;;;;;;;7.52;100.00;97998.84;20904699;28;20209;-57
2022/01/04 18:06:24;;;;;;;12.03;10.87;;;;;;;7.54;100.00;97981.00;20985067;28;20229;-56
2022/01/04 18:16:27;;;;;;;12.83;11.53;;;;;;;7.62;100.00;97967.03;21081170;28;20193;-56
2022/01/04 18:26:31;;;;;;;13.93;12.50;;;;;;;7.55;100.00;97966.75;21079550;28;20252;-56
2022/01/04 18:36:33;;;;;;;13.17;11.77;;;;;;;7.61;100.00;97936.16;21079971;28;20193;-57
2022/01/04 18:46:36;;;;;;;11.10;10.00;;;;;;;7.66;100.00;97946.34;21050222;28;20228;-54
2022/01/04 18:56:39;;;;;;;14.20;12.80;;;;;;;7.67;100.00;97942.72;21003138;28;20744;-54
2022/01/04 19:06:42;;;;;;;15.70;14.03;;;;;;;7.61;100.00;97930.84;21003260;28;20269;-53
2022/01/04 19:16:45;;;;;;;14.33;12.93;;;;;;;7.58;100.00;97923.19;21001071;28;20212;-54
2022/01/04 19:26:50;;;;;;;17.37;15.67;;;;;;;7.61;100.00;97916.75;21001986;28;20856;-55
2022/01/04 19:36:53;;;;;;;16.20;14.60;;;;;;;7.61;100.00;97933.50;21003309;28;20198;-55
2022/01/04 19:46:56;;;;;;;16.80;15.20;;;;;;;7.50;100.00;97921.19;20949571;28;20659;-56
2022/01/04 19:56:59;;;;;;;18.67;16.77;;;;;;;7.46;100.00;97913.66;20974157;28;20205;-55
2022/01/04 20:07:03;;;;;;;20.13;18.00;;;;;;;7.39;100.00;97913.38;20999091;28;20965;-55
2022/01/04 20:17:05;;;;;;;21.47;19.23;;;;;;;7.28;100.00;97921.44;21012286;28;20414;-56
2022/01/04 20:27:08;;;;;;;23.83;21.07;;;;;;;7.24;100.00;97931.47;21015909;28;20237;-55
2022/01/04 20:37:11;;;;;;;25.43;22.73;;;;;;;7.23;100.00;97953.69;21016003;28;20209;-55
2022/01/04 20:47:14;;;;;;;22.97;20.60;;;;;;;7.16;100.00;97980.88;21013288;28;20802;-55
2022/01/04 20:57:19;;;;;;;11.23;9.63;;;;;;;6.63;100.00;98031.41;21013122;28;20262;-56
2022/01/04 21:07:22;;;;;;;15.03;11.47;;;;;;;5.77;100.00;98047.41;21008233;28;20239;-59
2022/01/04 21:17:25;;;;;;;25.87;15.17;;;;;;;5.53;100.00;98081.97;21011821;28;20211;-55
2022/01/04 21:27:28;;;;;;;17.87;13.00;;;;;;;5.34;100.00;98098.41;21011672;28;20371;-60
2022/01/04 21:37:31;;;;;;;21.90;13.27;;;;;;;5.14;100.00;98101.78;21010962;28;20672;-59
2022/01/04 21:47:35;;;;;;;23.90;13.27;;;;;;;5.04;100.00;98095.53;21010680;28;20218;-58
2022/01/04 21:57:37;;;;;;;22.33;11.93;;;;;;;4.86;100.00;98107.50;21044391;28;20198;-58
2022/01/04 22:07:40;;;;;;;36.13;16.63;;;;;;;4.80;100.00;98118.56;21081471;28;20238;-58
2022/01/04 22:17:43;;;;;;;25.50;13.13;;;;;;;4.70;100.00;98145.66;21080155;28;20182;-58
2022/01/04 22:27:49;;;;;;;14.83;8.17;;;;;;;4.59;100.00;98184.38;21080649;28;20221;-58
2022/01/04 22:37:52;;;;;;;13.50;8.00;;;;;;;4.55;100.00;98189.06;21094863;28;20194;-58
2022/01/04 22:47:55;;;;;;;12.17;7.13;;;;;;;4.48;100.00;98208.94;21079097;28;20312;-58
2022/01/04 22:57:57;;;;;;;12.13;6.47;;;;;;;4.24;100.00;98223.91;21078782;28;20248;-57
2022/01/04 23:08:00;;;;;;;12.37;6.87;;;;;;;4.03;100.00;98236.00;21076757;28;20232;-58
2022/01/04 23:18:03;;;;;;;18.43;8.90;;;;;;;3.89;100.00;98247.53;21078152;28;20282;-60
2022/01/04 23:28:05;;;;;;;22.27;11.00;;;;;;;3.78;100.00;98272.03;21076937;28;20248;-58
2022/01/04 23:38:08;;;;;;;22.83;11.13;;;;;;;3.72;100.00;98304.13;21077316;28;20281;-58
2022/01/04 23:48:11;;;;;;;27.47;12.57;;;;;;;3.54;100.00;98323.81;21085964;28;20245;-58
2022/01/04 23:58:14;;;;;;;26.43;11.70;;;;;;;3.43;100.00;98307.88;21092255;28;20289;-58
